Albano Laziale, Italy

7:34 AM CEST on 六月 28, 2017 (GMT +0200)
Albano Laziale | | Change Station

高度 1476 ft 41.73 °N, 12.67 °E | Updated 3 minutes ago

所により曇
所により曇
75.3 °F
体感気温 77 °F
8.0
風 変数 風 から 東南東
Gusts 10.0 Mph

今日
高い -- | 低 -- °F
--% 降水確率
昨日
高い -- | 低 -- °F
Precip. -- インチ
気圧 29.77 インチ
視程 6.2 マイル
やや曇 3000 ft
だいたい曇 7000 ft
体感気温(暑さ) 77 °F
露点温度 63 °F
湿度 66%
降水 0.00 インチ
積雪深 利用不可。
5:37 AM 8:48 PM
三日月, 22% visible
METAR LIRA 280520Z 31004KT 270V360 9999 SCT030 BKN070 24/20 Q1008
気圧 29.77 インチ
視程 6.2 マイル
やや曇 3000 ft
だいたい曇 7000 ft
体感気温(暑さ) 77 °F
露点温度 63 °F
湿度 66%
降水 0.00 インチ
積雪深 利用不可。
5:37 AM 8:48 PM
三日月, 22% visible
METAR LIRA 280520Z 31004KT 270V360 9999 SCT030 BKN070 24/20 Q1008

Get Severe Weather Alerts

Thanks for signing up!

Be on the lookout for a verification email in your inbox.

You'll start receiving the daily forecast at 6 AM.

×

10-Day Weather Forecast

×

Almanac

天文

Jun. 28, 2017 入り
実時間
常用薄明
航海薄明
天文薄明
可視光の長さ
可照時間
Tomorrow will be .
, % of the Moon is Illuminated

今日の極値

Country Highs Country Lows

Community

Category 6

Welcome to Category 6. This is the collective home for Weather Underground's featured writeups by Dr. Jeff Masters (right), Bob Henson (left), Chris Burt, and other regular contributors.

Nearby

空気品質

  空気品質 大気質指数 汚染物質
Not available.

積雪深

Station Depth 高度

地震活動

Distance Mag. Time & Date
Minimum magnitude displayed is 2.5.

沿岸の水温

地名 気温

Stations

最寄りの気象観測所

観測所位置 温度 体感気温(寒さ) 露点温度 湿度 Precip. 高度 更新日時 タイプする